sensor_id;sensor_type;location;lat;lon;timestamp;P1;durP1;ratioP1;P2;durP2;ratioP2
75486;SDS011;65009;44.762;21.516;2023-02-04T00:01:10;73.00;;;38.43;;
75486;SDS011;65009;44.762;21.516;2023-02-04T00:03:36;70.97;;;35.87;;
75486;SDS011;65009;44.762;21.516;2023-02-04T00:06:02;77.00;;;37.20;;
75486;SDS011;65009;44.762;21.516;2023-02-04T00:08:28;80.77;;;45.50;;
75486;SDS011;65009;44.762;21.516;2023-02-04T00:10:54;81.80;;;46.33;;
75486;SDS011;65009;44.762;21.516;2023-02-04T00:13:20;100.17;;;49.50;;
75486;SDS011;65009;44.762;21.516;2023-02-04T00:15:46;71.97;;;38.60;;
75486;SDS011;65009;44.762;21.516;2023-02-04T00:18:12;54.47;;;31.53;;
75486;SDS011;65009;44.762;21.516;2023-02-04T00:20:38;68.37;;;39.80;;
75486;SDS011;65009;44.762;21.516;2023-02-04T00:23:05;61.33;;;34.63;;
75486;SDS011;65009;44.762;21.516;2023-02-04T00:25:31;81.97;;;39.43;;
75486;SDS011;65009;44.762;21.516;2023-02-04T00:27:57;46.00;;;24.17;;
75486;SDS011;65009;44.762;21.516;2023-02-04T00:30:23;40.60;;;22.83;;
75486;SDS011;65009;44.762;21.516;2023-02-04T00:32:49;34.27;;;19.93;;
75486;SDS011;65009;44.762;21.516;2023-02-04T00:35:19;28.00;;;18.10;;
75486;SDS011;65009;44.762;21.516;2023-02-04T00:37:45;30.73;;;20.77;;
75486;SDS011;65009;44.762;21.516;2023-02-04T00:40:11;30.83;;;19.40;;
75486;SDS011;65009;44.762;21.516;2023-02-04T00:42:37;52.40;;;28.57;;
75486;SDS011;65009;44.762;21.516;2023-02-04T00:45:03;231.23;;;101.70;;
75486;SDS011;65009;44.762;21.516;2023-02-04T00:47:30;623.87;;;336.80;;
75486;SDS011;65009;44.762;21.516;2023-02-04T00:49:56;330.53;;;146.13;;
75486;SDS011;65009;44.762;21.516;2023-02-04T00:52:22;72.63;;;38.07;;
75486;SDS011;65009;44.762;21.516;2023-02-04T00:54:48;221.83;;;104.03;;
75486;SDS011;65009;44.762;21.516;2023-02-04T00:57:14;137.47;;;71.17;;
75486;SDS011;65009;44.762;21.516;2023-02-04T00:59:41;112.40;;;56.93;;
75486;SDS011;65009;44.762;21.516;2023-02-04T01:02:07;89.47;;;45.13;;
75486;SDS011;65009;44.762;21.516;2023-02-04T01:04:33;105.00;;;44.90;;
75486;SDS011;65009;44.762;21.516;2023-02-04T01:06:59;96.47;;;39.80;;
75486;SDS011;65009;44.762;21.516;2023-02-04T01:09:25;47.10;;;24.03;;
75486;SDS011;65009;44.762;21.516;2023-02-04T01:11:51;75.40;;;35.37;;
75486;SDS011;65009;44.762;21.516;2023-02-04T01:14:18;57.40;;;28.43;;
75486;SDS011;65009;44.762;21.516;2023-02-04T01:16:45;66.97;;;31.00;;
75486;SDS011;65009;44.762;21.516;2023-02-04T01:19:11;54.03;;;27.23;;
75486;SDS011;65009;44.762;21.516;2023-02-04T01:21:37;40.80;;;21.80;;
75486;SDS011;65009;44.762;21.516;2023-02-04T01:24:03;48.40;;;23.70;;
75486;SDS011;65009;44.762;21.516;2023-02-04T01:26:30;22.20;;;12.20;;
75486;SDS011;65009;44.762;21.516;2023-02-04T01:28:56;26.77;;;14.73;;
75486;SDS011;65009;44.762;21.516;2023-02-04T01:31:22;32.40;;;16.97;;
75486;SDS011;65009;44.762;21.516;2023-02-04T01:33:48;31.87;;;17.17;;
75486;SDS011;65009;44.762;21.516;2023-02-04T01:36:14;20.83;;;11.57;;
75486;SDS011;65009;44.762;21.516;2023-02-04T01:38:46;30.67;;;14.33;;
75486;SDS011;65009;44.762;21.516;2023-02-04T01:41:12;20.77;;;11.70;;
75486;SDS011;65009;44.762;21.516;2023-02-04T01:43:38;23.07;;;12.40;;
75486;SDS011;65009;44.762;21.516;2023-02-04T01:46:04;20.07;;;11.27;;
75486;SDS011;65009;44.762;21.516;2023-02-04T01:48:30;19.00;;;10.30;;
75486;SDS011;65009;44.762;21.516;2023-02-04T01:51:01;21.60;;;11.77;;
75486;SDS011;65009;44.762;21.516;2023-02-04T01:53:27;30.20;;;13.20;;
75486;SDS011;65009;44.762;21.516;2023-02-04T01:55:54;18.50;;;8.57;;
75486;SDS011;65009;44.762;21.516;2023-02-04T01:58:20;54.23;;;23.13;;
75486;SDS011;65009;44.762;21.516;2023-02-04T02:00:46;41.40;;;19.50;;
75486;SDS011;65009;44.762;21.516;2023-02-04T02:03:13;19.53;;;9.27;;
75486;SDS011;65009;44.762;21.516;2023-02-04T02:05:42;110.77;;;29.47;;
75486;SDS011;65009;44.762;21.516;2023-02-04T02:08:09;27.60;;;13.67;;
75486;SDS011;65009;44.762;21.516;2023-02-04T02:10:36;22.63;;;11.67;;
75486;SDS011;65009;44.762;21.516;2023-02-04T02:13:03;18.53;;;7.47;;
75486;SDS011;65009;44.762;21.516;2023-02-04T02:15:29;15.50;;;8.03;;
75486;SDS011;65009;44.762;21.516;2023-02-04T02:17:56;22.37;;;10.00;;
75486;SDS011;65009;44.762;21.516;2023-02-04T02:20:22;11.53;;;5.50;;
75486;SDS011;65009;44.762;21.516;2023-02-04T02:25:34;22.97;;;8.00;;
75486;SDS011;65009;44.762;21.516;2023-02-04T02:28:00;15.23;;;6.07;;
75486;SDS011;65009;44.762;21.516;2023-02-04T02:30:27;10.43;;;3.87;;
75486;SDS011;65009;44.762;21.516;2023-02-04T02:32:54;16.90;;;4.80;;
75486;SDS011;65009;44.762;21.516;2023-02-04T02:35:21;18.47;;;6.67;;
75486;SDS011;65009;44.762;21.516;2023-02-04T02:37:48;16.40;;;7.20;;
75486;SDS011;65009;44.762;21.516;2023-02-04T02:40:14;15.33;;;5.97;;
75486;SDS011;65009;44.762;21.516;2023-02-04T02:42:41;19.73;;;7.40;;
75486;SDS011;65009;44.762;21.516;2023-02-04T02:45:27;20.53;;;7.47;;
75486;SDS011;65009;44.762;21.516;2023-02-04T02:47:55;24.63;;;9.70;;
75486;SDS011;65009;44.762;21.516;2023-02-04T02:50:22;26.17;;;10.77;;
75486;SDS011;65009;44.762;21.516;2023-02-04T02:52:50;15.53;;;5.33;;
75486;SDS011;65009;44.762;21.516;2023-02-04T02:55:17;12.40;;;4.70;;
75486;SDS011;65009;44.762;21.516;2023-02-04T02:57:44;12.13;;;4.27;;
75486;SDS011;65009;44.762;21.516;2023-02-04T03:00:14;13.63;;;4.27;;
75486;SDS011;65009;44.762;21.516;2023-02-04T03:02:41;13.57;;;4.73;;
75486;SDS011;65009;44.762;21.516;2023-02-04T03:05:07;9.33;;;3.30;;
75486;SDS011;65009;44.762;21.516;2023-02-04T03:07:33;12.73;;;2.77;;
75486;SDS011;65009;44.762;21.516;2023-02-04T03:10:00;9.83;;;2.53;;
75486;SDS011;65009;44.762;21.516;2023-02-04T03:12:26;12.67;;;3.67;;
75486;SDS011;65009;44.762;21.516;2023-02-04T03:14:52;10.43;;;3.00;;
75486;SDS011;65009;44.762;21.516;2023-02-04T03:17:18;7.30;;;2.30;;
75486;SDS011;65009;44.762;21.516;2023-02-04T03:19:44;9.83;;;3.13;;
75486;SDS011;65009;44.762;21.516;2023-02-04T03:22:11;14.33;;;3.50;;
75486;SDS011;65009;44.762;21.516;2023-02-04T03:24:37;15.47;;;4.20;;
75486;SDS011;65009;44.762;21.516;2023-02-04T03:27:03;10.13;;;2.73;;
75486;SDS011;65009;44.762;21.516;2023-02-04T03:29:30;13.20;;;3.23;;
75486;SDS011;65009;44.762;21.516;2023-02-04T03:31:56;8.47;;;2.83;;
75486;SDS011;65009;44.762;21.516;2023-02-04T03:34:24;11.70;;;3.60;;
75486;SDS011;65009;44.762;21.516;2023-02-04T03:36:50;13.87;;;3.10;;
75486;SDS011;65009;44.762;21.516;2023-02-04T03:39:16;10.47;;;2.67;;
75486;SDS011;65009;44.762;21.516;2023-02-04T03:41:42;16.93;;;4.40;;
75486;SDS011;65009;44.762;21.516;2023-02-04T03:44:09;11.73;;;3.90;;
75486;SDS011;65009;44.762;21.516;2023-02-04T03:46:35;14.57;;;4.73;;
75486;SDS011;65009;44.762;21.516;2023-02-04T03:49:01;8.67;;;2.60;;
75486;SDS011;65009;44.762;21.516;2023-02-04T03:51:27;8.07;;;2.73;;
75486;SDS011;65009;44.762;21.516;2023-02-04T03:53:53;16.17;;;5.60;;
75486;SDS011;65009;44.762;21.516;2023-02-04T03:56:20;28.83;;;11.10;;
75486;SDS011;65009;44.762;21.516;2023-02-04T03:58:46;14.77;;;5.20;;
75486;SDS011;65009;44.762;21.516;2023-02-04T04:01:12;14.07;;;6.70;;
75486;SDS011;65009;44.762;21.516;2023-02-04T04:03:38;9.43;;;3.50;;
75486;SDS011;65009;44.762;21.516;2023-02-04T04:06:04;8.70;;;2.83;;
75486;SDS011;65009;44.762;21.516;2023-02-04T04:08:32;18.03;;;4.33;;
75486;SDS011;65009;44.762;21.516;2023-02-04T04:10:58;12.17;;;3.63;;
75486;SDS011;65009;44.762;21.516;2023-02-04T04:13:25;10.33;;;2.93;;
75486;SDS011;65009;44.762;21.516;2023-02-04T04:15:51;11.60;;;3.27;;
75486;SDS011;65009;44.762;21.516;2023-02-04T04:18:17;6.87;;;1.47;;
75486;SDS011;65009;44.762;21.516;2023-02-04T04:20:43;7.43;;;1.80;;
75486;SDS011;65009;44.762;21.516;2023-02-04T04:23:09;9.60;;;2.00;;
75486;SDS011;65009;44.762;21.516;2023-02-04T04:25:35;3.83;;;1.13;;
75486;SDS011;65009;44.762;21.516;2023-02-04T04:28:01;10.03;;;1.70;;
75486;SDS011;65009;44.762;21.516;2023-02-04T04:30:27;7.70;;;1.63;;
75486;SDS011;65009;44.762;21.516;2023-02-04T04:32:54;5.90;;;1.43;;
75486;SDS011;65009;44.762;21.516;2023-02-04T04:35:20;6.47;;;1.63;;
75486;SDS011;65009;44.762;21.516;2023-02-04T04:37:46;8.53;;;1.63;;
75486;SDS011;65009;44.762;21.516;2023-02-04T04:40:12;12.87;;;2.43;;
75486;SDS011;65009;44.762;21.516;2023-02-04T04:42:38;8.70;;;2.33;;
75486;SDS011;65009;44.762;21.516;2023-02-04T04:45:05;11.00;;;2.07;;
75486;SDS011;65009;44.762;21.516;2023-02-04T04:47:31;7.40;;;2.23;;
75486;SDS011;65009;44.762;21.516;2023-02-04T04:49:57;8.40;;;2.07;;
75486;SDS011;65009;44.762;21.516;2023-02-04T04:52:26;8.13;;;2.20;;
75486;SDS011;65009;44.762;21.516;2023-02-04T04:54:52;15.53;;;5.47;;
75486;SDS011;65009;44.762;21.516;2023-02-04T04:57:19;15.93;;;4.07;;
75486;SDS011;65009;44.762;21.516;2023-02-04T04:59:45;14.33;;;6.00;;
75486;SDS011;65009;44.762;21.516;2023-02-04T05:02:11;10.83;;;2.83;;
75486;SDS011;65009;44.762;21.516;2023-02-04T05:04:37;11.27;;;2.30;;
75486;SDS011;65009;44.762;21.516;2023-02-04T05:07:03;8.43;;;2.33;;
75486;SDS011;65009;44.762;21.516;2023-02-04T05:09:29;13.03;;;3.30;;
75486;SDS011;65009;44.762;21.516;2023-02-04T05:11:56;11.70;;;3.97;;
75486;SDS011;65009;44.762;21.516;2023-02-04T05:14:22;12.00;;;3.90;;
75486;SDS011;65009;44.762;21.516;2023-02-04T05:16:48;10.90;;;2.50;;
75486;SDS011;65009;44.762;21.516;2023-02-04T05:19:14;10.63;;;3.63;;
75486;SDS011;65009;44.762;21.516;2023-02-04T05:21:40;14.10;;;4.63;;
75486;SDS011;65009;44.762;21.516;2023-02-04T05:24:07;20.17;;;8.70;;
75486;SDS011;65009;44.762;21.516;2023-02-04T05:26:33;19.90;;;6.50;;
75486;SDS011;65009;44.762;21.516;2023-02-04T05:28:59;13.10;;;3.80;;
75486;SDS011;65009;44.762;21.516;2023-02-04T05:31:25;13.77;;;4.27;;
75486;SDS011;65009;44.762;21.516;2023-02-04T05:33:52;16.67;;;3.90;;
75486;SDS011;65009;44.762;21.516;2023-02-04T05:36:18;12.43;;;5.50;;
75486;SDS011;65009;44.762;21.516;2023-02-04T05:38:45;15.40;;;6.33;;
75486;SDS011;65009;44.762;21.516;2023-02-04T05:41:11;15.97;;;5.67;;
75486;SDS011;65009;44.762;21.516;2023-02-04T05:43:37;14.63;;;4.63;;
75486;SDS011;65009;44.762;21.516;2023-02-04T05:46:03;11.80;;;3.63;;
75486;SDS011;65009;44.762;21.516;2023-02-04T05:48:30;10.37;;;2.83;;
75486;SDS011;65009;44.762;21.516;2023-02-04T05:50:56;10.53;;;2.97;;
75486;SDS011;65009;44.762;21.516;2023-02-04T05:53:22;10.30;;;2.43;;
75486;SDS011;65009;44.762;21.516;2023-02-04T05:55:48;7.60;;;2.20;;
75486;SDS011;65009;44.762;21.516;2023-02-04T05:58:14;12.97;;;3.40;;
75486;SDS011;65009;44.762;21.516;2023-02-04T06:00:41;14.27;;;4.87;;
75486;SDS011;65009;44.762;21.516;2023-02-04T06:03:07;10.20;;;3.00;;
75486;SDS011;65009;44.762;21.516;2023-02-04T06:05:33;9.07;;;4.10;;
75486;SDS011;65009;44.762;21.516;2023-02-04T06:07:59;14.00;;;4.60;;
75486;SDS011;65009;44.762;21.516;2023-02-04T06:10:25;13.37;;;6.67;;
75486;SDS011;65009;44.762;21.516;2023-02-04T06:12:52;23.30;;;9.60;;
75486;SDS011;65009;44.762;21.516;2023-02-04T06:15:18;16.13;;;5.53;;
75486;SDS011;65009;44.762;21.516;2023-02-04T06:17:44;18.53;;;6.03;;
75486;SDS011;65009;44.762;21.516;2023-02-04T06:20:12;18.57;;;5.97;;
75486;SDS011;65009;44.762;21.516;2023-02-04T06:22:38;12.00;;;5.00;;
75486;SDS011;65009;44.762;21.516;2023-02-04T06:25:04;9.53;;;2.77;;
75486;SDS011;65009;44.762;21.516;2023-02-04T06:27:31;7.97;;;2.53;;
75486;SDS011;65009;44.762;21.516;2023-02-04T06:29:57;12.93;;;3.70;;
75486;SDS011;65009;44.762;21.516;2023-02-04T06:32:23;21.20;;;6.20;;
75486;SDS011;65009;44.762;21.516;2023-02-04T06:34:49;13.67;;;4.73;;
75486;SDS011;65009;44.762;21.516;2023-02-04T06:37:15;14.73;;;4.70;;
75486;SDS011;65009;44.762;21.516;2023-02-04T06:39:42;12.83;;;3.10;;
75486;SDS011;65009;44.762;21.516;2023-02-04T06:42:08;13.03;;;2.90;;
75486;SDS011;65009;44.762;21.516;2023-02-04T06:44:34;11.80;;;2.20;;
75486;SDS011;65009;44.762;21.516;2023-02-04T06:47:00;6.97;;;2.37;;
75486;SDS011;65009;44.762;21.516;2023-02-04T06:49:26;6.40;;;1.63;;
75486;SDS011;65009;44.762;21.516;2023-02-04T06:51:53;7.73;;;1.97;;
75486;SDS011;65009;44.762;21.516;2023-02-04T06:54:19;10.83;;;2.27;;
75486;SDS011;65009;44.762;21.516;2023-02-04T06:56:45;5.53;;;1.73;;
75486;SDS011;65009;44.762;21.516;2023-02-04T06:59:12;9.60;;;1.90;;
75486;SDS011;65009;44.762;21.516;2023-02-04T07:01:38;10.00;;;2.37;;
75486;SDS011;65009;44.762;21.516;2023-02-04T07:04:04;12.70;;;2.50;;
75486;SDS011;65009;44.762;21.516;2023-02-04T07:06:30;10.00;;;1.77;;
75486;SDS011;65009;44.762;21.516;2023-02-04T07:08:56;13.07;;;2.60;;
75486;SDS011;65009;44.762;21.516;2023-02-04T07:11:23;8.00;;;2.17;;
75486;SDS011;65009;44.762;21.516;2023-02-04T07:13:49;9.87;;;2.20;;
75486;SDS011;65009;44.762;21.516;2023-02-04T07:16:15;8.47;;;1.73;;
75486;SDS011;65009;44.762;21.516;2023-02-04T07:18:41;11.77;;;3.10;;
75486;SDS011;65009;44.762;21.516;2023-02-04T07:21:07;90.73;;;38.60;;
75486;SDS011;65009;44.762;21.516;2023-02-04T07:23:34;76.27;;;34.10;;
75486;SDS011;65009;44.762;21.516;2023-02-04T07:26:00;34.83;;;17.77;;
75486;SDS011;65009;44.762;21.516;2023-02-04T07:28:26;38.07;;;19.73;;
75486;SDS011;65009;44.762;21.516;2023-02-04T07:30:52;16.83;;;6.90;;
75486;SDS011;65009;44.762;21.516;2023-02-04T07:33:18;19.93;;;9.10;;
75486;SDS011;65009;44.762;21.516;2023-02-04T07:35:45;13.57;;;6.10;;
75486;SDS011;65009;44.762;21.516;2023-02-04T07:38:11;12.73;;;5.17;;
75486;SDS011;65009;44.762;21.516;2023-02-04T07:40:37;16.10;;;5.90;;
75486;SDS011;65009;44.762;21.516;2023-02-04T07:43:03;9.03;;;2.87;;
75486;SDS011;65009;44.762;21.516;2023-02-04T07:45:29;8.83;;;4.17;;
75486;SDS011;65009;44.762;21.516;2023-02-04T07:47:55;10.43;;;2.67;;
75486;SDS011;65009;44.762;21.516;2023-02-04T07:50:22;6.60;;;2.43;;
75486;SDS011;65009;44.762;21.516;2023-02-04T07:52:48;7.47;;;2.07;;
75486;SDS011;65009;44.762;21.516;2023-02-04T07:55:14;9.07;;;2.60;;
75486;SDS011;65009;44.762;21.516;2023-02-04T07:57:40;11.00;;;3.17;;
75486;SDS011;65009;44.762;21.516;2023-02-04T08:00:07;11.70;;;4.00;;
75486;SDS011;65009;44.762;21.516;2023-02-04T08:02:33;8.50;;;3.50;;
75486;SDS011;65009;44.762;21.516;2023-02-04T08:04:59;11.37;;;4.77;;
75486;SDS011;65009;44.762;21.516;2023-02-04T08:07:26;7.90;;;2.80;;
75486;SDS011;65009;44.762;21.516;2023-02-04T08:09:52;10.03;;;3.70;;
75486;SDS011;65009;44.762;21.516;2023-02-04T08:12:18;13.27;;;4.47;;
75486;SDS011;65009;44.762;21.516;2023-02-04T08:14:44;17.97;;;6.40;;
75486;SDS011;65009;44.762;21.516;2023-02-04T08:17:10;14.83;;;5.47;;
75486;SDS011;65009;44.762;21.516;2023-02-04T08:19:36;8.70;;;3.20;;
75486;SDS011;65009;44.762;21.516;2023-02-04T08:22:03;11.53;;;3.90;;
75486;SDS011;65009;44.762;21.516;2023-02-04T08:24:29;14.27;;;5.13;;
75486;SDS011;65009;44.762;21.516;2023-02-04T08:26:55;10.87;;;5.73;;
75486;SDS011;65009;44.762;21.516;2023-02-04T08:29:22;13.93;;;6.60;;
75486;SDS011;65009;44.762;21.516;2023-02-04T08:31:50;13.13;;;7.77;;
75486;SDS011;65009;44.762;21.516;2023-02-04T08:34:16;15.53;;;7.20;;
75486;SDS011;65009;44.762;21.516;2023-02-04T08:36:42;19.93;;;7.70;;
75486;SDS011;65009;44.762;21.516;2023-02-04T08:39:09;10.90;;;3.70;;
75486;SDS011;65009;44.762;21.516;2023-02-04T08:41:36;12.97;;;6.73;;
75486;SDS011;65009;44.762;21.516;2023-02-04T08:44:02;10.27;;;4.70;;
75486;SDS011;65009;44.762;21.516;2023-02-04T08:46:29;10.80;;;4.63;;
75486;SDS011;65009;44.762;21.516;2023-02-04T08:48:55;10.47;;;5.60;;
75486;SDS011;65009;44.762;21.516;2023-02-04T08:51:21;11.43;;;5.47;;
75486;SDS011;65009;44.762;21.516;2023-02-04T08:53:47;14.47;;;6.40;;
75486;SDS011;65009;44.762;21.516;2023-02-04T08:56:14;13.70;;;6.10;;
75486;SDS011;65009;44.762;21.516;2023-02-04T08:58:42;9.33;;;4.20;;
75486;SDS011;65009;44.762;21.516;2023-02-04T09:01:09;9.57;;;3.57;;
75486;SDS011;65009;44.762;21.516;2023-02-04T09:03:38;5.93;;;3.13;;
75486;SDS011;65009;44.762;21.516;2023-02-04T09:06:05;8.97;;;3.33;;
75486;SDS011;65009;44.762;21.516;2023-02-04T09:08:31;11.03;;;4.00;;
75486;SDS011;65009;44.762;21.516;2023-02-04T09:10:58;12.47;;;5.87;;
75486;SDS011;65009;44.762;21.516;2023-02-04T09:13:24;13.07;;;6.13;;
75486;SDS011;65009;44.762;21.516;2023-02-04T09:15:50;6.03;;;2.37;;
75486;SDS011;65009;44.762;21.516;2023-02-04T09:18:17;14.10;;;6.60;;
75486;SDS011;65009;44.762;21.516;2023-02-04T09:20:46;11.53;;;4.30;;
75486;SDS011;65009;44.762;21.516;2023-02-04T09:23:13;16.13;;;5.97;;
75486;SDS011;65009;44.762;21.516;2023-02-04T09:25:39;19.70;;;5.93;;
75486;SDS011;65009;44.762;21.516;2023-02-04T09:28:06;37.93;;;13.33;;
75486;SDS011;65009;44.762;21.516;2023-02-04T09:30:36;42.53;;;14.73;;
75486;SDS011;65009;44.762;21.516;2023-02-04T09:33:02;34.77;;;13.10;;
75486;SDS011;65009;44.762;21.516;2023-02-04T09:35:28;17.60;;;7.03;;
75486;SDS011;65009;44.762;21.516;2023-02-04T09:37:54;6.73;;;2.80;;
75486;SDS011;65009;44.762;21.516;2023-02-04T09:40:20;6.30;;;2.73;;
75486;SDS011;65009;44.762;21.516;2023-02-04T09:42:47;10.37;;;4.53;;
75486;SDS011;65009;44.762;21.516;2023-02-04T09:45:27;6.77;;;2.70;;
75486;SDS011;65009;44.762;21.516;2023-02-04T09:47:54;8.60;;;4.33;;
75486;SDS011;65009;44.762;21.516;2023-02-04T09:50:21;13.80;;;5.00;;
75486;SDS011;65009;44.762;21.516;2023-02-04T09:52:49;11.37;;;3.67;;
75486;SDS011;65009;44.762;21.516;2023-02-04T09:55:18;10.70;;;4.00;;
75486;SDS011;65009;44.762;21.516;2023-02-04T09:57:45;8.57;;;3.40;;
75486;SDS011;65009;44.762;21.516;2023-02-04T10:00:15;8.60;;;3.77;;
75486;SDS011;65009;44.762;21.516;2023-02-04T10:02:41;15.23;;;6.50;;
75486;SDS011;65009;44.762;21.516;2023-02-04T10:05:08;6.67;;;3.07;;
75486;SDS011;65009;44.762;21.516;2023-02-04T10:07:38;6.43;;;3.20;;
75486;SDS011;65009;44.762;21.516;2023-02-04T10:10:04;9.93;;;4.00;;
75486;SDS011;65009;44.762;21.516;2023-02-04T10:12:30;9.43;;;4.27;;
75486;SDS011;65009;44.762;21.516;2023-02-04T10:14:57;12.93;;;4.57;;
75486;SDS011;65009;44.762;21.516;2023-02-04T10:17:24;15.13;;;5.00;;
75486;SDS011;65009;44.762;21.516;2023-02-04T10:19:51;10.20;;;4.60;;
75486;SDS011;65009;44.762;21.516;2023-02-04T10:22:18;14.33;;;5.93;;
75486;SDS011;65009;44.762;21.516;2023-02-04T10:24:44;11.63;;;6.33;;
75486;SDS011;65009;44.762;21.516;2023-02-04T10:27:11;20.50;;;8.73;;
75486;SDS011;65009;44.762;21.516;2023-02-04T10:29:40;19.47;;;7.23;;
75486;SDS011;65009;44.762;21.516;2023-02-04T10:32:23;17.93;;;8.33;;
75486;SDS011;65009;44.762;21.516;2023-02-04T10:34:55;21.57;;;10.23;;
75486;SDS011;65009;44.762;21.516;2023-02-04T10:37:21;17.58;;;8.82;;
75486;SDS011;65009;44.762;21.516;2023-02-04T10:39:47;34.37;;;16.53;;
75486;SDS011;65009;44.762;21.516;2023-02-04T10:42:21;29.70;;;13.63;;
75486;SDS011;65009;44.762;21.516;2023-02-04T10:44:48;39.43;;;17.13;;
75486;SDS011;65009;44.762;21.516;2023-02-04T10:47:19;27.30;;;12.30;;
75486;SDS011;65009;44.762;21.516;2023-02-04T10:49:55;7.77;;;3.77;;
75486;SDS011;65009;44.762;21.516;2023-02-04T10:52:23;20.17;;;13.20;;
75486;SDS011;65009;44.762;21.516;2023-02-04T10:54:50;26.97;;;13.33;;
75486;SDS011;65009;44.762;21.516;2023-02-04T10:57:20;12.33;;;6.13;;
75486;SDS011;65009;44.762;21.516;2023-02-04T10:59:48;8.50;;;5.20;;
75486;SDS011;65009;44.762;21.516;2023-02-04T11:04:41;21.77;;;10.70;;
75486;SDS011;65009;44.762;21.516;2023-02-04T11:07:09;16.93;;;9.13;;
75486;SDS011;65009;44.762;21.516;2023-02-04T11:09:39;16.53;;;8.80;;
75486;SDS011;65009;44.762;21.516;2023-02-04T11:12:17;18.00;;;9.57;;
75486;SDS011;65009;44.762;21.516;2023-02-04T11:14:53;17.13;;;9.73;;
75486;SDS011;65009;44.762;21.516;2023-02-04T11:17:19;13.37;;;7.33;;
75486;SDS011;65009;44.762;21.516;2023-02-04T11:19:45;8.67;;;4.83;;
75486;SDS011;65009;44.762;21.516;2023-02-04T11:22:20;9.33;;;5.30;;
75486;SDS011;65009;44.762;21.516;2023-02-04T11:24:47;28.87;;;11.00;;
75486;SDS011;65009;44.762;21.516;2023-02-04T11:27:21;14.47;;;7.57;;
75486;SDS011;65009;44.762;21.516;2023-02-04T11:29:48;11.03;;;5.93;;
75486;SDS011;65009;44.762;21.516;2023-02-04T11:32:28;21.70;;;12.73;;
75486;SDS011;65009;44.762;21.516;2023-02-04T11:35:05;9.50;;;5.13;;
75486;SDS011;65009;44.762;21.516;2023-02-04T11:39:58;8.60;;;4.60;;
75486;SDS011;65009;44.762;21.516;2023-02-04T11:42:38;7.33;;;4.43;;
75486;SDS011;65009;44.762;21.516;2023-02-04T11:45:15;7.93;;;5.10;;
75486;SDS011;65009;44.762;21.516;2023-02-04T11:47:42;9.77;;;6.10;;
75486;SDS011;65009;44.762;21.516;2023-02-04T11:50:14;9.90;;;6.50;;
75486;SDS011;65009;44.762;21.516;2023-02-04T11:52:40;7.25;;;4.55;;
75486;SDS011;65009;44.762;21.516;2023-02-04T11:55:08;11.40;;;5.87;;
75486;SDS011;65009;44.762;21.516;2023-02-04T11:57:39;14.80;;;6.47;;
75486;SDS011;65009;44.762;21.516;2023-02-04T12:00:11;17.10;;;9.47;;
75486;SDS011;65009;44.762;21.516;2023-02-04T12:02:43;15.27;;;10.00;;
75486;SDS011;65009;44.762;21.516;2023-02-04T12:05:12;18.83;;;10.90;;
75486;SDS011;65009;44.762;21.516;2023-02-04T12:07:38;8.37;;;5.13;;
75486;SDS011;65009;44.762;21.516;2023-02-04T12:12:47;12.73;;;8.37;;
75486;SDS011;65009;44.762;21.516;2023-02-04T12:15:20;13.23;;;6.97;;
75486;SDS011;65009;44.762;21.516;2023-02-04T12:18:09;8.47;;;6.57;;
75486;SDS011;65009;44.762;21.516;2023-02-04T12:20:36;10.40;;;7.47;;
75486;SDS011;65009;44.762;21.516;2023-02-04T12:23:03;9.13;;;6.63;;
75486;SDS011;65009;44.762;21.516;2023-02-04T12:25:29;14.33;;;8.90;;
75486;SDS011;65009;44.762;21.516;2023-02-04T12:27:55;14.87;;;9.30;;
75486;SDS011;65009;44.762;21.516;2023-02-04T12:30:22;11.93;;;8.17;;
75486;SDS011;65009;44.762;21.516;2023-02-04T12:32:48;13.23;;;7.37;;
75486;SDS011;65009;44.762;21.516;2023-02-04T12:35:14;11.93;;;8.33;;
75486;SDS011;65009;44.762;21.516;2023-02-04T12:37:40;13.53;;;8.93;;
75486;SDS011;65009;44.762;21.516;2023-02-04T12:40:07;12.40;;;8.17;;
75486;SDS011;65009;44.762;21.516;2023-02-04T12:42:33;8.53;;;6.93;;
75486;SDS011;65009;44.762;21.516;2023-02-04T12:44:59;11.83;;;8.20;;
75486;SDS011;65009;44.762;21.516;2023-02-04T12:47:25;12.60;;;7.43;;
75486;SDS011;65009;44.762;21.516;2023-02-04T12:49:51;11.50;;;8.33;;
75486;SDS011;65009;44.762;21.516;2023-02-04T12:52:17;16.33;;;10.10;;
75486;SDS011;65009;44.762;21.516;2023-02-04T12:54:44;14.57;;;9.83;;
75486;SDS011;65009;44.762;21.516;2023-02-04T12:57:10;17.93;;;10.47;;
75486;SDS011;65009;44.762;21.516;2023-02-04T12:59:38;22.30;;;12.90;;
75486;SDS011;65009;44.762;21.516;2023-02-04T13:02:04;16.47;;;10.37;;
75486;SDS011;65009;44.762;21.516;2023-02-04T13:04:30;17.00;;;11.70;;
75486;SDS011;65009;44.762;21.516;2023-02-04T13:06:56;18.27;;;10.47;;
75486;SDS011;65009;44.762;21.516;2023-02-04T13:09:23;28.27;;;14.40;;
75486;SDS011;65009;44.762;21.516;2023-02-04T13:11:49;23.63;;;13.20;;
75486;SDS011;65009;44.762;21.516;2023-02-04T13:14:15;20.93;;;11.70;;
75486;SDS011;65009;44.762;21.516;2023-02-04T13:16:41;21.27;;;12.73;;
75486;SDS011;65009;44.762;21.516;2023-02-04T13:19:07;21.43;;;12.90;;
75486;SDS011;65009;44.762;21.516;2023-02-04T13:21:33;15.77;;;10.50;;
75486;SDS011;65009;44.762;21.516;2023-02-04T13:23:59;19.53;;;13.03;;
75486;SDS011;65009;44.762;21.516;2023-02-04T13:26:25;13.07;;;8.80;;
75486;SDS011;65009;44.762;21.516;2023-02-04T13:28:52;22.07;;;13.67;;
75486;SDS011;65009;44.762;21.516;2023-02-04T13:31:18;14.80;;;8.97;;
75486;SDS011;65009;44.762;21.516;2023-02-04T13:33:44;12.10;;;8.33;;
75486;SDS011;65009;44.762;21.516;2023-02-04T13:36:10;14.20;;;8.40;;
75486;SDS011;65009;44.762;21.516;2023-02-04T13:38:36;15.27;;;8.97;;
75486;SDS011;65009;44.762;21.516;2023-02-04T13:41:02;16.50;;;9.80;;
75486;SDS011;65009;44.762;21.516;2023-02-04T13:43:28;18.60;;;11.90;;
75486;SDS011;65009;44.762;21.516;2023-02-04T13:45:54;17.97;;;11.60;;
75486;SDS011;65009;44.762;21.516;2023-02-04T13:48:21;13.20;;;9.30;;
75486;SDS011;65009;44.762;21.516;2023-02-04T13:50:48;22.27;;;13.33;;
75486;SDS011;65009;44.762;21.516;2023-02-04T13:53:15;18.00;;;11.67;;
75486;SDS011;65009;44.762;21.516;2023-02-04T13:55:41;18.77;;;12.50;;
75486;SDS011;65009;44.762;21.516;2023-02-04T13:58:07;21.20;;;12.40;;
75486;SDS011;65009;44.762;21.516;2023-02-04T14:00:34;28.70;;;16.37;;
75486;SDS011;65009;44.762;21.516;2023-02-04T14:03:00;28.50;;;16.30;;
75486;SDS011;65009;44.762;21.516;2023-02-04T14:05:26;13.63;;;8.37;;
75486;SDS011;65009;44.762;21.516;2023-02-04T14:07:52;10.40;;;6.30;;
75486;SDS011;65009;44.762;21.516;2023-02-04T14:10:19;12.33;;;7.07;;
75486;SDS011;65009;44.762;21.516;2023-02-04T14:12:49;12.73;;;8.10;;
75486;SDS011;65009;44.762;21.516;2023-02-04T14:15:16;10.40;;;6.80;;
75486;SDS011;65009;44.762;21.516;2023-02-04T14:17:43;6.13;;;4.20;;
75486;SDS011;65009;44.762;21.516;2023-02-04T14:20:09;5.53;;;3.47;;
75486;SDS011;65009;44.762;21.516;2023-02-04T14:22:35;8.10;;;5.10;;
75486;SDS011;65009;44.762;21.516;2023-02-04T14:25:01;6.87;;;4.20;;
75486;SDS011;65009;44.762;21.516;2023-02-04T14:27:28;7.67;;;5.23;;
75486;SDS011;65009;44.762;21.516;2023-02-04T14:29:54;7.43;;;4.53;;